Time;durP1;ratioP1;P1;durP2;ratioP2;P2;SDS_P1;SDS_P2;PMS_P1;PMS_P2;Temp;Humidity;BMP_temperature;BMP_pressure;BME280_temperature;BME280_humidity;BME280_pressure;Samples;Min_cycle;Max_cycle;Signal;HPM_P1;HPM_P2
2021/01/13 00:00:01;;;;;;;;;;;;;;;;;;5053666;28;19916;-68
2021/01/13 00:02:27;;;;;;;;;;;;;;;;;;5053066;28;19916;-68
2021/01/13 00:04:53;;;;;;;;;;;;;;;;;;5054685;28;19948;-69
2021/01/13 00:07:19;;;;;;;;;;;;;;;;;;5054589;28;19905;-68
2021/01/13 00:09:45;;;;;;;;;;;;;;;;;;5053256;28;19915;-69
2021/01/13 00:12:11;;;;;;;;;;;;;;;;;;5052572;28;19908;-68
2021/01/13 00:14:42;;;;;;;;;;;;;;;;;;5054595;28;19964;-68
2021/01/13 00:17:08;;;;;;;;;;;;;;;;;;5051867;28;19917;-69
2021/01/13 00:19:34;;;;;;;;;;;;;;;;;;5054750;28;19963;-68
2021/01/13 00:22:00;;;;;;;;;;;;;;;;;;5053615;28;19912;-67
2021/01/13 00:24:26;;;;;;;;;;;;;;;;;;5053619;28;19935;-68
2021/01/13 00:26:52;;;;;;;;;;;;;;;;;;5051845;28;19958;-67
2021/01/13 00:29:18;;;;;;;;;;;;;;;;;;5044574;28;19909;-68
2021/01/13 00:31:44;;;;;;;;;;;;;;;;;;5053700;28;20616;-68
2021/01/13 00:34:10;;;;;;;;;;;;;;;;;;5035924;28;19921;-68
2021/01/13 00:36:36;;;;;;;;;;;;;;;;;;5041186;28;19908;-69
2021/01/13 00:39:02;;;;;;;;;;;;;;;;;;5045372;28;19909;-69
2021/01/13 00:41:28;;;;;;;;;;;;;;;;;;5051637;28;20042;-69
2021/01/13 00:43:53;;;;;;;;;;;;;;;;;;5037310;28;19909;-69
2021/01/13 00:46:19;;;;;;;;;;;;;;;;;;5043790;28;19909;-69
2021/01/13 00:48:45;;;;;;;;;;;;;;;;;;5049094;28;19913;-69
2021/01/13 00:51:11;;;;;;;;;;;;;;;;;;5039490;28;19916;-69
2021/01/13 00:53:37;;;;;;;;;;;;;;;;;;5044268;28;19931;-69
2021/01/13 00:56:03;;;;;;;;;;;;;;;;;;5052147;28;19919;-69
2021/01/13 00:58:29;;;;;;;;;;;;;;;;;;5051586;28;19908;-69
2021/01/13 01:00:55;;;;;;;;;;;;;;;;;;5054038;28;19927;-69
2021/01/13 01:03:21;;;;;;;;;;;;;;;;;;5051902;28;19963;-69
2021/01/13 01:05:47;;;;;;;;;;;;;;;;;;5052840;28;19916;-69
2021/01/13 01:08:13;;;;;;;;;;;;;;;;;;5051536;28;19920;-68
2021/01/13 01:10:38;;;;;;;;;;;;;;;;;;5053612;28;20007;-69
2021/01/13 01:13:04;;;;;;;;;;;;;;;;;;5051412;28;19935;-69
2021/01/13 01:15:31;;;;;;;;;;;;;;;;;;5052316;28;19917;-70
2021/01/13 01:17:57;;;;;;;;;;;;;;;;;;5050068;28;19947;-70
2021/01/13 01:20:23;;;;;;;;;;;;;;;;;;5053242;28;19948;-69
2021/01/13 01:22:48;;;;;;;;;;;;;;;;;;5051835;28;20351;-69
2021/01/13 01:25:14;;;;;;;;;;;;;;;;;;5050408;28;19908;-69
2021/01/13 01:27:40;;;;;;;;;;;;;;;;;;5050986;28;19912;-69
2021/01/13 01:30:06;;;;;;;;;;;;;;;;;;5049583;28;19912;-70
2021/01/13 01:32:32;;;;;;;;;;;;;;;;;;5048158;28;19923;-69
2021/01/13 01:34:58;;;;;;;;;;;;;;;;;;5052091;28;19939;-70
2021/01/13 01:37:24;;;;;;;;;;;;;;;;;;5050414;28;19939;-69
2021/01/13 01:39:50;;;;;;;;;;;;;;;;;;5052695;28;19915;-69
2021/01/13 01:42:16;;;;;;;;;;;;;;;;;;5045994;28;20491;-69
2021/01/13 01:44:42;;;;;;;;;;;;;;;;;;5038434;28;20423;-68
2021/01/13 01:47:08;;;;;;;;;;;;;;;;;;5043539;28;19912;-70
2021/01/13 01:49:34;;;;;;;;;;;;;;;;;;5043931;28;19909;-69
2021/01/13 01:52:00;;;;;;;;;;;;;;;;;;5049508;28;19913;-69
2021/01/13 01:54:26;;;;;;;;;;;;;;;;;;5041694;28;19924;-69
2021/01/13 01:56:52;;;;;;;;;;;;;;;;;;5042927;28;19919;-69
2021/01/13 01:59:18;;;;;;;;;;;;;;;;;;5049779;28;20003;-69
2021/01/13 02:01:44;;;;;;;;;;;;;;;;;;5052255;28;20038;-69
2021/01/13 02:04:10;;;;;;;;;;;;;;;;;;5050433;28;19913;-69
2021/01/13 02:06:35;;;;;;;;;;;;;;;;;;5052807;28;19905;-69
2021/01/13 02:09:01;;;;;;;;;;;;;;;;;;5050493;28;20000;-69
2021/01/13 02:11:27;;;;;;;;;;;;;;;;;;5052266;28;19932;-69
2021/01/13 02:13:53;;;;;;;;;;;;;;;;;;5050691;28;19917;-69
2021/01/13 02:16:19;;;;;;;;;;;;;;;;;;5046976;28;19959;-69
2021/01/13 02:18:45;;;;;;;;;;;;;;;;;;5044842;28;19971;-69
2021/01/13 02:21:11;;;;;;;;;;;;;;;;;;5049477;28;20388;-69
2021/01/13 02:23:37;;;;;;;;;;;;;;;;;;5051429;28;20003;-69
2021/01/13 02:26:03;;;;;;;;;;;;;;;;;;5050036;28;19971;-69
2021/01/13 02:28:29;;;;;;;;;;;;;;;;;;5051489;28;19970;-69
2021/01/13 02:30:55;;;;;;;;;;;;;;;;;;5047510;28;19916;-69
2021/01/13 02:33:21;;;;;;;;;;;;;;;;;;5051729;28;19998;-68
2021/01/13 02:35:47;;;;;;;;;;;;;;;;;;5050020;28;19915;-69
2021/01/13 02:38:13;;;;;;;;;;;;;;;;;;5049873;28;20062;-69
2021/01/13 02:40:39;;;;;;;;;;;;;;;;;;5049979;28;19913;-69
2021/01/13 02:43:07;;;;;;;;;;;;;;;;;;5050902;28;19915;-69
2021/01/13 02:45:32;;;;;;;;;;;;;;;;;;5049579;28;19912;-69
2021/01/13 02:47:58;;;;;;;;;;;;;;;;;;5051280;28;20685;-70
2021/01/13 02:50:24;;;;;;;;;;;;;;;;;;5048737;28;19908;-70
2021/01/13 02:52:50;;;;;;;;;;;;;;;;;;5053731;28;20020;-69
2021/01/13 02:55:16;;;;;;;;;;;;;;;;;;5042302;28;19940;-70
2021/01/13 02:57:42;;;;;;;;;;;;;;;;;;5048880;28;19970;-69
2021/01/13 03:00:08;;;;;;;;;;;;;;;;;;5049876;28;19909;-69
2021/01/13 03:02:34;;;;;;;;;;;;;;;;;;5051845;28;19909;-69
2021/01/13 03:05:00;;;;;;;;;;;;;;;;;;5045910;28;20412;-70
2021/01/13 03:07:26;;;;;;;;;;;;;;;;;;5051478;28;20003;-69
2021/01/13 03:09:52;;;;;;;;;;;;;;;;;;5052266;28;19913;-70
2021/01/13 03:12:18;;;;;;;;;;;;;;;;;;5055251;28;19911;-69
2021/01/13 03:14:44;;;;;;;;;;;;;;;;;;5052605;28;19955;-69
2021/01/13 03:17:10;;;;;;;;;;;;;;;;;;5051933;28;19908;-69
2021/01/13 03:19:36;;;;;;;;;;;;;;;;;;5050832;28;20395;-69
2021/01/13 03:22:01;;;;;;;;;;;;;;;;;;5054326;28;19912;-69
2021/01/13 03:24:27;;;;;;;;;;;;;;;;;;5053587;28;19908;-69
2021/01/13 03:26:53;;;;;;;;;;;;;;;;;;5053760;28;19905;-69
2021/01/13 03:29:19;;;;;;;;;;;;;;;;;;5051449;28;20437;-69
2021/01/13 03:31:45;;;;;;;;;;;;;;;;;;5053595;28;19913;-70
2021/01/13 03:34:11;;;;;;;;;;;;;;;;;;5053127;28;19929;-70
2021/01/13 03:36:37;;;;;;;;;;;;;;;;;;5054972;28;19908;-69
2021/01/13 03:39:03;;;;;;;;;;;;;;;;;;5054422;28;19908;-69
2021/01/13 03:41:29;;;;;;;;;;;;;;;;;;5046855;28;20066;-69
2021/01/13 03:43:55;;;;;;;;;;;;;;;;;;5053317;28;19913;-68
2021/01/13 03:46:21;;;;;;;;;;;;;;;;;;5052755;28;19908;-68
2021/01/13 03:48:47;;;;;;;;;;;;;;;;;;5054893;28;19913;-69
2021/01/13 03:51:13;;;;;;;;;;;;;;;;;;5050819;28;19962;-69
2021/01/13 03:53:38;;;;;;;;;;;;;;;;;;5054739;28;19912;-69
2021/01/13 03:56:04;;;;;;;;;;;;;;;;;;5050965;28;19913;-69
2021/01/13 03:58:30;;;;;;;;;;;;;;;;;;5053669;28;19970;-68
2021/01/13 04:00:56;;;;;;;;;;;;;;;;;;5051453;28;19931;-68
2021/01/13 04:03:22;;;;;;;;;;;;;;;;;;5043518;28;19904;-68
2021/01/13 04:05:48;;;;;;;;;;;;;;;;;;5045364;28;19913;-69
2021/01/13 04:08:14;;;;;;;;;;;;;;;;;;5043416;28;19913;-69
2021/01/13 04:10:40;;;;;;;;;;;;;;;;;;5049336;28;19968;-69
2021/01/13 04:13:06;;;;;;;;;;;;;;;;;;5053794;28;19947;-70
2021/01/13 04:15:32;;;;;;;;;;;;;;;;;;5051548;28;19959;-69
2021/01/13 04:17:57;;;;;;;;;;;;;;;;;;5053603;28;19913;-69
2021/01/13 04:20:23;;;;;;;;;;;;;;;;;;5052020;28;19928;-69
2021/01/13 04:22:49;;;;;;;;;;;;;;;;;;5054192;28;19912;-69
2021/01/13 04:25:15;;;;;;;;;;;;;;;;;;5052267;28;19917;-70
2021/01/13 04:27:41;;;;;;;;;;;;;;;;;;5052008;28;19935;-70
2021/01/13 04:30:07;;;;;;;;;;;;;;;;;;5049751;28;19908;-69
2021/01/13 04:32:33;;;;;;;;;;;;;;;;;;5053723;28;19927;-69
2021/01/13 04:34:59;;;;;;;;;;;;;;;;;;5037990;28;19955;-69
2021/01/13 04:37:25;;;;;;;;;;;;;;;;;;5050255;28;19953;-69
2021/01/13 04:39:51;;;;;;;;;;;;;;;;;;5051317;28;19912;-69
2021/01/13 04:42:17;;;;;;;;;;;;;;;;;;5054185;28;19905;-70
2021/01/13 04:44:43;;;;;;;;;;;;;;;;;;5043884;28;19932;-70
2021/01/13 04:47:09;;;;;;;;;;;;;;;;;;5051328;28;20337;-68
2021/01/13 04:49:35;;;;;;;;;;;;;;;;;;5051164;28;20450;-69
2021/01/13 04:52:01;;;;;;;;;;;;;;;;;;5053165;28;19975;-70
2021/01/13 04:54:27;;;;;;;;;;;;;;;;;;5051063;28;20270;-70
2021/01/13 04:56:53;;;;;;;;;;;;;;;;;;5052199;28;19912;-69
2021/01/13 04:59:19;;;;;;;;;;;;;;;;;;5052646;28;19919;-69
2021/01/13 05:01:44;;;;;;;;;;;;;;;;;;5053260;28;19904;-70
2021/01/13 05:04:10;;;;;;;;;;;;;;;;;;5049797;28;19948;-70
2021/01/13 05:06:36;;;;;;;;;;;;;;;;;;5050821;28;20043;-70
2021/01/13 05:09:03;;;;;;;;;;;;;;;;;;5051745;28;19913;-70
2021/01/13 05:11:28;;;;;;;;;;;;;;;;;;5043873;28;19984;-70
2021/01/13 05:13:54;;;;;;;;;;;;;;;;;;5051297;28;19948;-69
2021/01/13 05:16:20;;;;;;;;;;;;;;;;;;5050963;28;19935;-70
2021/01/13 05:18:46;;;;;;;;;;;;;;;;;;5053367;28;19931;-70
2021/01/13 05:21:12;;;;;;;;;;;;;;;;;;5051811;28;19909;-69
2021/01/13 05:23:38;;;;;;;;;;;;;;;;;;5051875;28;19927;-70
2021/01/13 05:26:04;;;;;;;;;;;;;;;;;;5050949;28;19947;-69
2021/01/13 05:28:30;;;;;;;;;;;;;;;;;;5042692;28;19932;-69
2021/01/13 05:30:56;;;;;;;;;;;;;;;;;;5047364;28;19931;-70
2021/01/13 05:33:22;;;;;;;;;;;;;;;;;;5052889;28;19934;-70
2021/01/13 05:35:48;;;;;;;;;;;;;;;;;;5043907;28;19955;-69
2021/01/13 05:38:14;;;;;;;;;;;;;;;;;;5038022;28;19912;-70
2021/01/13 05:40:39;;;;;;;;;;;;;;;;;;5044861;28;19908;-70
2021/01/13 05:43:05;;;;;;;;;;;;;;;;;;5049110;28;19916;-69
2021/01/13 05:45:31;;;;;;;;;;;;;;;;;;5050494;28;19915;-70
2021/01/13 05:47:57;;;;;;;;;;;;;;;;;;5052890;28;19916;-70
2021/01/13 05:50:23;;;;;;;;;;;;;;;;;;5050778;28;19909;-69
2021/01/13 05:52:49;;;;;;;;;;;;;;;;;;5052955;28;19905;-70
2021/01/13 05:55:15;;;;;;;;;;;;;;;;;;5049073;28;19917;-70
2021/01/13 05:57:41;;;;;;;;;;;;;;;;;;5052311;28;19909;-69
2021/01/13 06:00:07;;;;;;;;;;;;;;;;;;5042185;28;19970;-70
2021/01/13 06:02:33;;;;;;;;;;;;;;;;;;5050639;28;19956;-70
2021/01/13 06:04:58;;;;;;;;;;;;;;;;;;5049107;28;20003;-70
2021/01/13 06:07:24;;;;;;;;;;;;;;;;;;5051360;28;19909;-70
2021/01/13 06:09:50;;;;;;;;;;;;;;;;;;5049656;28;19912;-70
2021/01/13 06:12:16;;;;;;;;;;;;;;;;;;5052283;28;19931;-69
2021/01/13 06:14:42;;;;;;;;;;;;;;;;;;5044458;28;20022;-70
2021/01/13 06:17:08;;;;;;;;;;;;;;;;;;5049188;28;19917;-69
2021/01/13 06:19:34;;;;;;;;;;;;;;;;;;5049755;28;19931;-69
2021/01/13 06:22:00;;;;;;;;;;;;;;;;;;5052303;28;19913;-69
2021/01/13 06:24:26;;;;;;;;;;;;;;;;;;5049096;28;19920;-70
2021/01/13 06:26:55;;;;;;;;;;;;;;;;;;5048746;28;19932;-69
2021/01/13 06:29:20;;;;;;;;;;;;;;;;;;5044154;28;19917;-69
2021/01/13 06:31:46;;;;;;;;;;;;;;;;;;5050985;28;19933;-69
2021/01/13 06:34:12;;;;;;;;;;;;;;;;;;5049889;28;19912;-69
2021/01/13 06:36:38;;;;;;;;;;;;;;;;;;5049554;28;19947;-69
2021/01/13 06:39:04;;;;;;;;;;;;;;;;;;5045905;28;19909;-69
2021/01/13 06:41:30;;;;;;;;;;;;;;;;;;5040750;28;19923;-70
2021/01/13 06:43:56;;;;;;;;;;;;;;;;;;5036005;28;20372;-69
2021/01/13 06:46:22;;;;;;;;;;;;;;;;;;5047448;28;19952;-70
2021/01/13 06:48:48;;;;;;;;;;;;;;;;;;5039616;28;20310;-70
2021/01/13 06:51:14;;;;;;;;;;;;;;;;;;5042349;28;19912;-69
2021/01/13 06:53:40;;;;;;;;;;;;;;;;;;5049156;28;19971;-69
2021/01/13 06:56:06;;;;;;;;;;;;;;;;;;5052531;28;19935;-70
2021/01/13 06:58:32;;;;;;;;;;;;;;;;;;5060630;28;19931;-68
2021/01/13 07:00:57;;;;;;;;;;;;;;;;;;5049972;28;19928;-70
2021/01/13 07:03:28;;;;;;;;;;;;;;;;;;5049621;28;19915;-69
2021/01/13 07:05:54;;;;;;;;;;;;;;;;;;5051171;28;19909;-69
2021/01/13 07:08:20;;;;;;;;;;;;;;;;;;5049704;28;19924;-69
2021/01/13 07:10:46;;;;;;;;;;;;;;;;;;5051409;28;19962;-69
2021/01/13 07:13:12;;;;;;;;;;;;;;;;;;5049972;28;19905;-69
2021/01/13 07:15:38;;;;;;;;;;;;;;;;;;5050805;28;19913;-69
2021/01/13 07:18:04;;;;;;;;;;;;;;;;;;5043430;28;20030;-69
2021/01/13 07:20:30;;;;;;;;;;;;;;;;;;5050565;28;19918;-70
2021/01/13 07:22:56;;;;;;;;;;;;;;;;;;5048935;28;19912;-70
2021/01/13 07:25:22;;;;;;;;;;;;;;;;;;5048937;28;19916;-69
2021/01/13 07:27:48;;;;;;;;;;;;;;;;;;5045197;28;19913;-68
2021/01/13 07:30:14;;;;;;;;;;;;;;;;;;5048452;28;19923;-68
2021/01/13 07:32:41;;;;;;;;;;;;;;;;;;5044419;28;19948;-68
2021/01/13 07:35:07;;;;;;;;;;;;;;;;;;5049815;28;19924;-69
2021/01/13 07:37:33;;;;;;;;;;;;;;;;;;5051172;28;19911;-68
2021/01/13 07:39:59;;;;;;;;;;;;;;;;;;5053033;28;20003;-68
2021/01/13 07:42:25;;;;;;;;;;;;;;;;;;5054162;28;19915;-69
2021/01/13 07:44:51;;;;;;;;;;;;;;;;;;5053408;28;19916;-68
2021/01/13 07:47:17;;;;;;;;;;;;;;;;;;5053210;28;19916;-68
2021/01/13 07:49:47;;;;;;;;;;;;;;;;;;5046322;28;19917;-68
2021/01/13 07:52:13;;;;;;;;;;;;;;;;;;5044947;28;19908;-69
2021/01/13 07:54:38;;;;;;;;;;;;;;;;;;5045276;28;20029;-69
2021/01/13 07:57:04;;;;;;;;;;;;;;;;;;5054425;28;19912;-69
2021/01/13 07:59:30;;;;;;;;;;;;;;;;;;5051861;28;19912;-69
2021/01/13 08:01:56;;;;;;;;;;;;;;;;;;5053413;28;19996;-69
2021/01/13 08:04:22;;;;;;;;;;;;;;;;;;5052819;28;19932;-69
2021/01/13 08:06:48;;;;;;;;;;;;;;;;;;5053710;28;19905;-69
2021/01/13 08:09:14;;;;;;;;;;;;;;;;;;5052953;28;20020;-69
2021/01/13 08:11:40;;;;;;;;;;;;;;;;;;5052624;28;20633;-69
2021/01/13 08:14:06;;;;;;;;;;;;;;;;;;5049417;28;20016;-69
2021/01/13 08:16:32;;;;;;;;;;;;;;;;;;5049622;28;20018;-69
2021/01/13 08:19:00;;;;;;;;;;;;;;;;;;5045022;28;19913;-69
2021/01/13 08:21:37;;;;;;;;;;;;;;;;;;5048126;28;19908;-69
2021/01/13 08:24:09;;;;;;;;;;;;;;;;;;5051047;28;20300;-68
2021/01/13 08:26:34;;;;;;;;;;;;;;;;;;5050204;28;19908;-68
2021/01/13 08:29:03;;;;;;;;;;;;;;;;;;5042200;28;19920;-68
2021/01/13 08:31:31;;;;;;;;;;;;;;;;;;5048210;28;20377;-69
2021/01/13 08:33:57;;;;;;;;;;;;;;;;;;5049591;28;20292;-69
2021/01/13 08:36:23;;;;;;;;;;;;;;;;;;5052410;28;19909;-69
2021/01/13 08:38:49;;;;;;;;;;;;;;;;;;5050680;28;20605;-68
2021/01/13 08:41:15;;;;;;;;;;;;;;;;;;5053131;28;19966;-69
2021/01/13 08:43:41;;;;;;;;;;;;;;;;;;5051044;28;19912;-68
2021/01/13 08:46:06;;;;;;;;;;;;;;;;;;5048124;28;19999;-69
2021/01/13 08:48:32;;;;;;;;;;;;;;;;;;5049449;28;19920;-68
2021/01/13 08:50:58;;;;;;;;;;;;;;;;;;5050947;28;19915;-68
2021/01/13 08:53:24;;;;;;;;;;;;;;;;;;5050261;28;19931;-69
2021/01/13 08:55:50;;;;;;;;;;;;;;;;;;5051550;28;19928;-69
2021/01/13 08:58:16;;;;;;;;;;;;;;;;;;5051560;28;19905;-68
2021/01/13 09:00:42;;;;;;;;;;;;;;;;;;5052489;28;19943;-70
2021/01/13 09:03:10;;;;;;;;;;;;;;;;;;5048256;28;19987;-69
2021/01/13 09:05:36;;;;;;;;;;;;;;;;;;5047658;28;21101;-69
2021/01/13 09:08:02;;;;;;;;;;;;;;;;;;5052887;28;19923;-68
2021/01/13 09:10:28;;;;;;;;;;;;;;;;;;5050832;28;19917;-71
2021/01/13 09:12:54;;;;;;;;;;;;;;;;;;5053642;28;19916;-70
2021/01/13 09:15:20;;;;;;;;;;;;;;;;;;5050479;28;19967;-69
2021/01/13 09:17:46;;;;;;;;;;;;;;;;;;5051894;28;20022;-69
2021/01/13 09:20:12;;;;;;;;;;;;;;;;;;5051196;28;19917;-69
2021/01/13 09:22:38;;;;;;;;;;;;;;;;;;5052950;28;19916;-69
2021/01/13 09:25:04;;;;;;;;;;;;;;;;;;5051574;28;19909;-69
2021/01/13 09:27:30;;;;;;;;;;;;;;;;;;5045027;28;19931;-70
2021/01/13 09:29:56;;;;;;;;;;;;;;;;;;5048598;28;20002;-70
2021/01/13 09:32:22;;;;;;;;;;;;;;;;;;5042043;28;19913;-71
2021/01/13 09:34:48;;;;;;;;;;;;;;;;;;5040209;28;19923;-68
2021/01/13 09:37:14;;;;;;;;;;;;;;;;;;5053289;28;19958;-69
2021/01/13 09:39:40;;;;;;;;;;;;;;;;;;5038061;28;19913;-69
2021/01/13 09:42:06;;;;;;;;;;;;;;;;;;5048804;28;19921;-70
2021/01/13 09:44:32;;;;;;;;;;;;;;;;;;5041919;28;19916;-70
2021/01/13 09:46:58;;;;;;;;;;;;;;;;;;5053008;28;19909;-70
2021/01/13 09:49:24;;;;;;;;;;;;;;;;;;5050435;28;19919;-70
2021/01/13 09:51:50;;;;;;;;;;;;;;;;;;5052647;28;19912;-70
2021/01/13 09:54:16;;;;;;;;;;;;;;;;;;5043423;28;19921;-70
2021/01/13 09:56:42;;;;;;;;;;;;;;;;;;5047799;28;19920;-70
2021/01/13 09:59:07;;;;;;;;;;;;;;;;;;5045257;28;20091;-70
2021/01/13 10:01:35;;;;;;;;;;;;;;;;;;5042349;28;19912;-69
2021/01/13 10:04:01;;;;;;;;;;;;;;;;;;5049043;28;19908;-70
2021/01/13 10:06:27;;;;;;;;;;;;;;;;;;5049505;28;20023;-70
2021/01/13 10:08:53;;;;;;;;;;;;;;;;;;5049030;28;19908;-71
2021/01/13 10:11:19;;;;;;;;;;;;;;;;;;5051724;28;19915;-70
2021/01/13 10:13:45;;;;;;;;;;;;;;;;;;5049568;28;19995;-70
2021/01/13 10:16:11;;;;;;;;;;;;;;;;;;5050584;28;19913;-71
2021/01/13 10:18:37;;;;;;;;;;;;;;;;;;5047745;28;20282;-71
2021/01/13 10:21:03;;;;;;;;;;;;;;;;;;5049927;28;19904;-70
2021/01/13 10:23:29;;;;;;;;;;;;;;;;;;5049833;28;19909;-69
2021/01/13 10:25:55;;;;;;;;;;;;;;;;;;5045818;28;19917;-70
2021/01/13 10:28:21;;;;;;;;;;;;;;;;;;5049000;28;20319;-70
2021/01/13 10:30:46;;;;;;;;;;;;;;;;;;5052165;28;19905;-70
2021/01/13 10:33:12;;;;;;;;;;;;;;;;;;5043159;28;19924;-69
2021/01/13 10:35:38;;;;;;;;;;;;;;;;;;5050755;28;19917;-70
2021/01/13 10:38:04;;;;;;;;;;;;;;;;;;5050860;28;19912;-70
2021/01/13 10:40:30;;;;;;;;;;;;;;;;;;5041821;28;20002;-70
2021/01/13 10:42:56;;;;;;;;;;;;;;;;;;5043772;28;20119;-69
2021/01/13 10:45:22;;;;;;;;;;;;;;;;;;5049282;28;19995;-68
2021/01/13 10:47:48;;;;;;;;;;;;;;;;;;5043529;28;20050;-69
2021/01/13 10:50:14;;;;;;;;;;;;;;;;;;5047535;28;20011;-68
2021/01/13 10:52:40;;;;;;;;;;;;;;;;;;5044664;28;19909;-68
2021/01/13 10:55:05;;;;;;;;;;;;;;;;;;5045320;28;19920;-68
2021/01/13 10:57:31;;;;;;;;;;;;;;;;;;5046973;28;19931;-69
2021/01/13 10:59:57;;;;;;;;;;;;;;;;;;5049649;28;19909;-68
2021/01/13 11:02:23;;;;;;;;;;;;;;;;;;5047889;28;20012;-69
2021/01/13 11:04:49;;;;;;;;;;;;;;;;;;5044462;28;19912;-69
2021/01/13 11:07:16;;;;;;;;;;;;;;;;;;5051556;28;20019;-70
2021/01/13 11:09:41;;;;;;;;;;;;;;;;;;5038538;28;19959;-70
2021/01/13 11:12:07;;;;;;;;;;;;;;;;;;5051786;28;19904;-70
2021/01/13 11:14:33;;;;;;;;;;;;;;;;;;5051504;28;19936;-70
2021/01/13 11:16:59;;;;;;;;;;;;;;;;;;5054567;28;19915;-70
2021/01/13 11:19:25;;;;;;;;;;;;;;;;;;5054842;28;19916;-69
2021/01/13 11:21:51;;;;;;;;;;;;;;;;;;5054624;28;19909;-71
2021/01/13 11:24:17;;;;;;;;;;;;;;;;;;5053184;28;19971;-70
2021/01/13 11:26:44;;;;;;;;;;;;;;;;;;5053909;28;19908;-70
2021/01/13 11:29:09;;;;;;;;;;;;;;;;;;5053642;28;19912;-71
2021/01/13 11:31:35;;;;;;;;;;;;;;;;;;5051860;28;19908;-70
2021/01/13 11:34:01;;;;;;;;;;;;;;;;;;5052997;28;20280;-70
2021/01/13 11:36:27;;;;;;;;;;;;;;;;;;5058532;28;19984;-71
2021/01/13 11:38:53;;;;;;;;;;;;;;;;;;5045020;28;19909;-70
2021/01/13 11:41:19;;;;;;;;;;;;;;;;;;5055728;28;20085;-70
2021/01/13 11:43:45;;;;;;;;;;;;;;;;;;5050476;28;19909;-70
2021/01/13 11:46:11;;;;;;;;;;;;;;;;;;5053171;28;20005;-70
2021/01/13 11:48:37;;;;;;;;;;;;;;;;;;5051275;28;19916;-70
2021/01/13 11:51:03;;;;;;;;;;;;;;;;;;5037499;28;19913;-70
2021/01/13 11:53:28;;;;;;;;;;;;;;;;;;5043268;28;19936;-69
2021/01/13 11:55:54;;;;;;;;;;;;;;;;;;5051267;28;19917;-69
2021/01/13 11:58:20;;;;;;;;;;;;;;;;;;5041487;28;19912;-70
2021/01/13 12:00:46;;;;;;;;;;;;;;;;;;5050939;28;19915;-70
2021/01/13 12:03:12;;;;;;;;;;;;;;;;;;5047121;28;19916;-70
2021/01/13 12:05:38;;;;;;;;;;;;;;;;;;5050382;28;19996;-71
2021/01/13 12:08:04;;;;;;;;;;;;;;;;;;5052942;28;19931;-69
2021/01/13 12:10:30;;;;;;;;;;;;;;;;;;5054684;28;19909;-74
2021/01/13 12:12:56;;;;;;;;;;;;;;;;;;5054807;28;19911;-71
2021/01/13 12:15:22;;;;;;;;;;;;;;;;;;5052520;28;20343;-71
2021/01/13 12:17:48;;;;;;;;;;;;;;;;;;5052006;28;19915;-69
2021/01/13 12:20:14;;;;;;;;;;;;;;;;;;5043754;28;19974;-71
2021/01/13 12:22:39;;;;;;;;;;;;;;;;;;5048299;28;19912;-70
2021/01/13 12:25:06;;;;;;;;;;;;;;;;;;5045474;28;19940;-70
2021/01/13 12:27:32;;;;;;;;;;;;;;;;;;5049171;28;19963;-70
2021/01/13 12:29:57;;;;;;;;;;;;;;;;;;5057022;28;19915;-70
2021/01/13 12:32:23;;;;;;;;;;;;;;;;;;5050846;28;19908;-71
2021/01/13 12:34:49;;;;;;;;;;;;;;;;;;5045936;28;19921;-70
2021/01/13 12:37:15;;;;;;;;;;;;;;;;;;5057246;28;19912;-71
2021/01/13 12:39:42;;;;;;;;;;;;;;;;;;5046438;28;19952;-70
2021/01/13 12:42:10;;;;;;;;;;;;;;;;;;5053576;28;20269;-71
2021/01/13 12:44:36;;;;;;;;;;;;;;;;;;5045315;28;20310;-71
2021/01/13 12:47:03;;;;;;;;;;;;;;;;;;5047946;28;20281;-71
2021/01/13 12:49:29;;;;;;;;;;;;;;;;;;5052893;28;19913;-71
2021/01/13 12:51:54;;;;;;;;;;;;;;;;;;5047160;28;19916;-70
2021/01/13 12:54:20;;;;;;;;;;;;;;;;;;5049405;28;19921;-70
2021/01/13 12:56:46;;;;;;;;;;;;;;;;;;5047406;28;19916;-70
2021/01/13 12:59:12;;;;;;;;;;;;;;;;;;5047904;28;19970;-70
2021/01/13 13:01:38;;;;;;;;;;;;;;;;;;5048539;28;19912;-70
2021/01/13 13:04:04;;;;;;;;;;;;;;;;;;5043276;28;19916;-71
2021/01/13 13:06:30;;;;;;;;;;;;;;;;;;5053289;28;19991;-71
2021/01/13 13:08:56;;;;;;;;;;;;;;;;;;5045313;28;20004;-71
2021/01/13 13:11:22;;;;;;;;;;;;;;;;;;5048884;28;19915;-70
2021/01/13 13:13:48;;;;;;;;;;;;;;;;;;5045229;28;19917;-71
2021/01/13 13:16:14;;;;;;;;;;;;;;;;;;5050328;28;19909;-71
2021/01/13 13:18:39;;;;;;;;;;;;;;;;;;5056720;28;19916;-71
2021/01/13 13:21:05;;;;;;;;;;;;;;;;;;5054444;28;19905;-71
2021/01/13 13:23:31;;;;;;;;;;;;;;;;;;5049774;28;20307;-70
2021/01/13 13:25:57;;;;;;;;;;;;;;;;;;5059820;28;19995;-70
2021/01/13 13:28:23;;;;;;;;;;;;;;;;;;5050571;28;19909;-70
2021/01/13 13:30:49;;;;;;;;;;;;;;;;;;5055657;28;19904;-70
2021/01/13 13:33:15;;;;;;;;;;;;;;;;;;5045101;28;19905;-70
2021/01/13 13:35:41;;;;;;;;;;;;;;;;;;5049205;28;19954;-71
2021/01/13 13:38:06;;;;;;;;;;;;;;;;;;5048056;28;20000;-70
2021/01/13 13:40:32;;;;;;;;;;;;;;;;;;5050436;28;19916;-70
2021/01/13 13:42:58;;;;;;;;;;;;;;;;;;5050753;28;20026;-70
2021/01/13 13:45:24;;;;;;;;;;;;;;;;;;5056568;28;19916;-70
2021/01/13 13:47:50;;;;;;;;;;;;;;;;;;5047588;28;19917;-70
2021/01/13 13:50:16;;;;;;;;;;;;;;;;;;5052935;28;19924;-70
2021/01/13 13:52:42;;;;;;;;;;;;;;;;;;5052078;28;20375;-70
2021/01/13 13:55:08;;;;;;;;;;;;;;;;;;5049855;28;19963;-70
2021/01/13 13:57:33;;;;;;;;;;;;;;;;;;5050749;28;19908;-70
2021/01/13 13:59:59;;;;;;;;;;;;;;;;;;5049930;28;19950;-70
2021/01/13 14:02:25;;;;;;;;;;;;;;;;;;5051850;28;20388;-71
2021/01/13 14:04:51;;;;;;;;;;;;;;;;;;5050656;28;19908;-72
2021/01/13 14:07:17;;;;;;;;;;;;;;;;;;5051034;28;20023;-72
2021/01/13 14:09:43;;;;;;;;;;;;;;;;;;5035896;28;19927;-69
2021/01/13 14:12:09;;;;;;;;;;;;;;;;;;5041925;28;19993;-69
2021/01/13 14:14:35;;;;;;;;;;;;;;;;;;5038223;28;19917;-69
2021/01/13 14:17:01;;;;;;;;;;;;;;;;;;5042696;28;19927;-71
2021/01/13 14:19:26;;;;;;;;;;;;;;;;;;5040797;28;20365;-70
2021/01/13 14:21:52;;;;;;;;;;;;;;;;;;5048470;28;19909;-70
2021/01/13 14:24:18;;;;;;;;;;;;;;;;;;5038844;28;19917;-70
2021/01/13 14:26:44;;;;;;;;;;;;;;;;;;5052397;28;19912;-70
2021/01/13 14:29:10;;;;;;;;;;;;;;;;;;5053283;28;20280;-70
2021/01/13 14:31:36;;;;;;;;;;;;;;;;;;5054079;28;20015;-69
2021/01/13 14:34:02;;;;;;;;;;;;;;;;;;5052421;28;19916;-70
2021/01/13 14:36:28;;;;;;;;;;;;;;;;;;5052437;28;19924;-69
2021/01/13 14:38:54;;;;;;;;;;;;;;;;;;5053613;28;19924;-70
2021/01/13 14:41:19;;;;;;;;;;;;;;;;;;5049108;28;19916;-69
2021/01/13 14:43:45;;;;;;;;;;;;;;;;;;5046630;28;20392;-70
2021/01/13 14:46:11;;;;;;;;;;;;;;;;;;5047208;28;19913;-70
2021/01/13 14:48:37;;;;;;;;;;;;;;;;;;5053758;28;19999;-69
2021/01/13 14:51:03;;;;;;;;;;;;;;;;;;5050350;28;20039;-69
2021/01/13 14:53:29;;;;;;;;;;;;;;;;;;5058114;28;19991;-69
2021/01/13 14:55:55;;;;;;;;;;;;;;;;;;5058046;28;19923;-69
2021/01/13 14:58:21;;;;;;;;;;;;;;;;;;5056375;28;19950;-69
2021/01/13 15:00:47;;;;;;;;;;;;;;;;;;5053034;28;20391;-68
2021/01/13 15:03:12;;;;;;;;;;;;;;;;;;5050612;28;19920;-69
2021/01/13 15:05:39;;;;;;;;;;;;;;;;;;5051778;28;19954;-69
2021/01/13 15:08:05;;;;;;;;;;;;;;;;;;5047929;28;19909;-68
2021/01/13 15:10:31;;;;;;;;;;;;;;;;;;5054998;28;19908;-62
2021/01/13 15:12:56;;;;;;;;;;;;;;;;;;5052583;28;19912;-63
2021/01/13 15:15:22;;;;;;;;;;;;;;;;;;5053163;28;19916;-62
2021/01/13 15:17:48;;;;;;;;;;;;;;;;;;5048287;28;20019;-63
2021/01/13 15:20:14;;;;;;;;;;;;;;;;;;5045610;28;19917;-63
2021/01/13 15:22:40;;;;;;;;;;;;;;;;;;5045409;28;20063;-64
2021/01/13 15:25:06;;;;;;;;;;;;;;;;;;5049114;28;19952;-64
2021/01/13 15:27:32;;;;;;;;;;;;;;;;;;5051536;28;20452;-64
2021/01/13 15:29:58;;;;;;;;;;;;;;;;;;5050043;28;19908;-64
2021/01/13 15:32:25;;;;;;;;;;;;;;;;;;5053121;28;19962;-64
2021/01/13 15:34:51;;;;;;;;;;;;;;;;;;5048496;28;19921;-64
2021/01/13 15:37:17;;;;;;;;;;;;;;;;;;5053140;28;19909;-64
2021/01/13 15:39:43;;;;;;;;;;;;;;;;;;5052409;28;19908;-64
2021/01/13 15:42:09;;;;;;;;;;;;;;;;;;5053675;28;20282;-64
2021/01/13 15:44:35;;;;;;;;;;;;;;;;;;5042805;28;19946;-64
2021/01/13 15:47:01;;;;;;;;;;;;;;;;;;5051953;28;19927;-64
2021/01/13 15:49:27;;;;;;;;;;;;;;;;;;5043044;28;19944;-65
2021/01/13 15:51:53;;;;;;;;;;;;;;;;;;5045659;28;19913;-64
2021/01/13 15:54:19;;;;;;;;;;;;;;;;;;5049058;28;20003;-65
2021/01/13 15:56:45;;;;;;;;;;;;;;;;;;5050114;28;19921;-64
2021/01/13 15:59:11;;;;;;;;;;;;;;;;;;5043678;28;19912;-64
2021/01/13 16:01:37;;;;;;;;;;;;;;;;;;5043054;28;20262;-64
2021/01/13 16:04:03;;;;;;;;;;;;;;;;;;5039761;28;19923;-64
2021/01/13 16:06:29;;;;;;;;;;;;;;;;;;5049589;28;19954;-64
2021/01/13 16:08:55;;;;;;;;;;;;;;;;;;5043032;28;19920;-64
2021/01/13 16:11:22;;;;;;;;;;;;;;;;;;5048618;28;20307;-64
2021/01/13 16:13:48;;;;;;;;;;;;;;;;;;5050259;28;20491;-65
2021/01/13 16:16:14;;;;;;;;;;;;;;;;;;5053307;28;20003;-64
2021/01/13 16:18:40;;;;;;;;;;;;;;;;;;5044943;28;19939;-64
2021/01/13 16:21:06;;;;;;;;;;;;;;;;;;5042710;28;20003;-65
2021/01/13 16:23:31;;;;;;;;;;;;;;;;;;5044245;28;20392;-64
2021/01/13 16:25:57;;;;;;;;;;;;;;;;;;5053470;28;19913;-64
2021/01/13 16:28:23;;;;;;;;;;;;;;;;;;5047900;28;19915;-65
2021/01/13 16:30:49;;;;;;;;;;;;;;;;;;5042473;28;19917;-65
2021/01/13 16:33:15;;;;;;;;;;;;;;;;;;5041588;28;19908;-64
2021/01/13 16:35:41;;;;;;;;;;;;;;;;;;5047142;28;20338;-65